sensor_id;sensor_type;location;lat;lon;timestamp;P1;durP1;ratioP1;P2;durP2;ratioP2
40256;SDS011;25977;45.462;9.210;2022-11-13T00:00:20;21.33;;;16.75;;
40256;SDS011;25977;45.462;9.210;2022-11-13T00:03:04;29.25;;;16.98;;
40256;SDS011;25977;45.462;9.210;2022-11-13T00:05:57;29.23;;;18.02;;
40256;SDS011;25977;45.462;9.210;2022-11-13T00:08:43;31.02;;;17.50;;
40256;SDS011;25977;45.462;9.210;2022-11-13T00:11:28;26.50;;;16.25;;
40256;SDS011;25977;45.462;9.210;2022-11-13T00:14:12;22.77;;;15.68;;
40256;SDS011;25977;45.462;9.210;2022-11-13T00:16:56;28.08;;;15.73;;
40256;SDS011;25977;45.462;9.210;2022-11-13T00:22:39;24.60;;;15.60;;
40256;SDS011;25977;45.462;9.210;2022-11-13T00:25:24;25.05;;;15.73;;
40256;SDS011;25977;45.462;9.210;2022-11-13T00:28:08;21.00;;;14.73;;
40256;SDS011;25977;45.462;9.210;2022-11-13T00:30:56;24.02;;;15.73;;
40256;SDS011;25977;45.462;9.210;2022-11-13T00:33:42;23.88;;;15.48;;
40256;SDS011;25977;45.462;9.210;2022-11-13T00:36:26;26.33;;;16.10;;
40256;SDS011;25977;45.462;9.210;2022-11-13T00:39:11;26.80;;;16.33;;
40256;SDS011;25977;45.462;9.210;2022-11-13T00:41:55;26.50;;;15.63;;
40256;SDS011;25977;45.462;9.210;2022-11-13T00:44:39;22.02;;;14.55;;
40256;SDS011;25977;45.462;9.210;2022-11-13T00:47:23;21.48;;;15.20;;
40256;SDS011;25977;45.462;9.210;2022-11-13T00:50:07;20.65;;;15.20;;
40256;SDS011;25977;45.462;9.210;2022-11-13T00:52:51;23.67;;;16.23;;
40256;SDS011;25977;45.462;9.210;2022-11-13T00:55:35;23.05;;;15.50;;
40256;SDS011;25977;45.462;9.210;2022-11-13T00:58:19;25.70;;;16.25;;
40256;SDS011;25977;45.462;9.210;2022-11-13T01:01:09;24.23;;;15.05;;
40256;SDS011;25977;45.462;9.210;2022-11-13T01:03:54;22.90;;;14.65;;
40256;SDS011;25977;45.462;9.210;2022-11-13T01:06:39;21.15;;;13.32;;
40256;SDS011;25977;45.462;9.210;2022-11-13T01:09:23;19.67;;;15.30;;
40256;SDS011;25977;45.462;9.210;2022-11-13T01:12:07;20.30;;;14.07;;
40256;SDS011;25977;45.462;9.210;2022-11-13T01:14:51;18.35;;;13.07;;
40256;SDS011;25977;45.462;9.210;2022-11-13T01:17:36;21.70;;;14.55;;
40256;SDS011;25977;45.462;9.210;2022-11-13T01:20:21;23.77;;;14.00;;
40256;SDS011;25977;45.462;9.210;2022-11-13T01:23:06;21.08;;;13.60;;
40256;SDS011;25977;45.462;9.210;2022-11-13T01:25:51;23.63;;;12.52;;
40256;SDS011;25977;45.462;9.210;2022-11-13T01:28:35;19.52;;;13.48;;
40256;SDS011;25977;45.462;9.210;2022-11-13T01:31:21;23.02;;;12.85;;
40256;SDS011;25977;45.462;9.210;2022-11-13T01:34:07;16.50;;;11.77;;
40256;SDS011;25977;45.462;9.210;2022-11-13T01:36:51;18.15;;;11.90;;
40256;SDS011;25977;45.462;9.210;2022-11-13T01:39:35;18.60;;;11.75;;
40256;SDS011;25977;45.462;9.210;2022-11-13T01:42:19;19.85;;;11.57;;
40256;SDS011;25977;45.462;9.210;2022-11-13T01:45:47;18.42;;;11.88;;
40256;SDS011;25977;45.462;9.210;2022-11-13T01:48:31;13.32;;;9.95;;
40256;SDS011;25977;45.462;9.210;2022-11-13T01:54:29;21.65;;;10.40;;
40256;SDS011;25977;45.462;9.210;2022-11-13T01:57:18;16.83;;;10.63;;
40256;SDS011;25977;45.462;9.210;2022-11-13T02:00:06;14.82;;;9.70;;
40256;SDS011;25977;45.462;9.210;2022-11-13T02:02:53;14.10;;;9.50;;
40256;SDS011;25977;45.462;9.210;2022-11-13T02:05:38;12.10;;;7.80;;
40256;SDS011;25977;45.462;9.210;2022-11-13T02:08:22;21.02;;;10.25;;
40256;SDS011;25977;45.462;9.210;2022-11-13T02:11:06;14.48;;;8.73;;
40256;SDS011;25977;45.462;9.210;2022-11-13T02:13:50;9.73;;;7.80;;
40256;SDS011;25977;45.462;9.210;2022-11-13T02:16:34;10.75;;;8.38;;
40256;SDS011;25977;45.462;9.210;2022-11-13T02:19:30;10.13;;;8.45;;
40256;SDS011;25977;45.462;9.210;2022-11-13T02:25:13;11.68;;;8.70;;
40256;SDS011;25977;45.462;9.210;2022-11-13T02:27:59;10.07;;;8.30;;
40256;SDS011;25977;45.462;9.210;2022-11-13T02:30:43;8.52;;;7.45;;
40256;SDS011;25977;45.462;9.210;2022-11-13T02:33:28;11.77;;;8.07;;
40256;SDS011;25977;45.462;9.210;2022-11-13T02:36:14;12.70;;;7.63;;
40256;SDS011;25977;45.462;9.210;2022-11-13T02:39:03;10.13;;;8.20;;
40256;SDS011;25977;45.462;9.210;2022-11-13T02:41:53;13.82;;;8.05;;
40256;SDS011;25977;45.462;9.210;2022-11-13T02:44:37;11.43;;;7.90;;
40256;SDS011;25977;45.462;9.210;2022-11-13T02:47:21;10.88;;;7.85;;
40256;SDS011;25977;45.462;9.210;2022-11-13T02:50:05;10.73;;;7.43;;
40256;SDS011;25977;45.462;9.210;2022-11-13T02:52:50;11.77;;;8.45;;
40256;SDS011;25977;45.462;9.210;2022-11-13T02:55:34;13.93;;;7.70;;
40256;SDS011;25977;45.462;9.210;2022-11-13T02:58:18;12.85;;;8.52;;
40256;SDS011;25977;45.462;9.210;2022-11-13T03:01:02;13.68;;;7.28;;
40256;SDS011;25977;45.462;9.210;2022-11-13T03:03:47;10.27;;;7.32;;
40256;SDS011;25977;45.462;9.210;2022-11-13T03:06:31;11.35;;;6.75;;
40256;SDS011;25977;45.462;9.210;2022-11-13T03:09:16;11.13;;;7.15;;
40256;SDS011;25977;45.462;9.210;2022-11-13T03:12:00;16.52;;;6.72;;
40256;SDS011;25977;45.462;9.210;2022-11-13T03:14:44;11.55;;;6.88;;
40256;SDS011;25977;45.462;9.210;2022-11-13T03:17:31;8.13;;;6.97;;
40256;SDS011;25977;45.462;9.210;2022-11-13T03:20:17;10.30;;;7.18;;
40256;SDS011;25977;45.462;9.210;2022-11-13T03:23:02;9.70;;;6.43;;
40256;SDS011;25977;45.462;9.210;2022-11-13T03:25:46;9.90;;;7.30;;
40256;SDS011;25977;45.462;9.210;2022-11-13T03:28:30;12.65;;;7.97;;
40256;SDS011;25977;45.462;9.210;2022-11-13T03:31:16;11.50;;;6.63;;
40256;SDS011;25977;45.462;9.210;2022-11-13T03:33:59;11.25;;;7.57;;
40256;SDS011;25977;45.462;9.210;2022-11-13T03:36:43;8.20;;;6.75;;
40256;SDS011;25977;45.462;9.210;2022-11-13T03:39:27;11.30;;;7.70;;
40256;SDS011;25977;45.462;9.210;2022-11-13T03:42:11;10.00;;;6.80;;
40256;SDS011;25977;45.462;9.210;2022-11-13T03:44:57;7.45;;;6.72;;
40256;SDS011;25977;45.462;9.210;2022-11-13T03:47:41;11.32;;;7.72;;
40256;SDS011;25977;45.462;9.210;2022-11-13T03:50:25;12.10;;;6.95;;
40256;SDS011;25977;45.462;9.210;2022-11-13T03:53:09;8.10;;;5.97;;
40256;SDS011;25977;45.462;9.210;2022-11-13T03:55:54;10.05;;;6.15;;
40256;SDS011;25977;45.462;9.210;2022-11-13T03:58:38;8.82;;;7.03;;
40256;SDS011;25977;45.462;9.210;2022-11-13T04:01:22;9.07;;;7.00;;
40256;SDS011;25977;45.462;9.210;2022-11-13T04:04:06;12.40;;;7.55;;
40256;SDS011;25977;45.462;9.210;2022-11-13T04:06:50;11.35;;;6.60;;
40256;SDS011;25977;45.462;9.210;2022-11-13T04:09:34;10.10;;;5.80;;
40256;SDS011;25977;45.462;9.210;2022-11-13T04:12:20;9.20;;;6.53;;
40256;SDS011;25977;45.462;9.210;2022-11-13T04:15:04;9.07;;;6.53;;
40256;SDS011;25977;45.462;9.210;2022-11-13T04:17:51;7.20;;;6.10;;
40256;SDS011;25977;45.462;9.210;2022-11-13T04:20:35;9.32;;;6.32;;
40256;SDS011;25977;45.462;9.210;2022-11-13T04:23:19;10.18;;;6.35;;
40256;SDS011;25977;45.462;9.210;2022-11-13T04:26:03;6.60;;;5.88;;
40256;SDS011;25977;45.462;9.210;2022-11-13T04:28:47;7.78;;;6.80;;
40256;SDS011;25977;45.462;9.210;2022-11-13T04:31:31;8.02;;;6.43;;
40256;SDS011;25977;45.462;9.210;2022-11-13T04:34:15;8.05;;;6.88;;
40256;SDS011;25977;45.462;9.210;2022-11-13T04:36:59;8.40;;;6.43;;
40256;SDS011;25977;45.462;9.210;2022-11-13T04:39:43;7.88;;;5.78;;
40256;SDS011;25977;45.462;9.210;2022-11-13T04:42:28;6.97;;;5.65;;
40256;SDS011;25977;45.462;9.210;2022-11-13T04:45:31;6.38;;;5.80;;
40256;SDS011;25977;45.462;9.210;2022-11-13T04:48:15;8.25;;;7.30;;
40256;SDS011;25977;45.462;9.210;2022-11-13T04:50:59;8.80;;;5.97;;
40256;SDS011;25977;45.462;9.210;2022-11-13T04:53:45;9.02;;;6.68;;
40256;SDS011;25977;45.462;9.210;2022-11-13T04:56:29;9.77;;;6.65;;
40256;SDS011;25977;45.462;9.210;2022-11-13T04:59:13;10.05;;;6.30;;
40256;SDS011;25977;45.462;9.210;2022-11-13T05:01:57;8.40;;;6.15;;
40256;SDS011;25977;45.462;9.210;2022-11-13T05:04:41;10.32;;;5.97;;
40256;SDS011;25977;45.462;9.210;2022-11-13T05:07:26;7.75;;;6.10;;
40256;SDS011;25977;45.462;9.210;2022-11-13T05:10:10;10.23;;;5.55;;
40256;SDS011;25977;45.462;9.210;2022-11-13T05:12:55;11.63;;;5.85;;
40256;SDS011;25977;45.462;9.210;2022-11-13T05:15:39;8.30;;;6.25;;
40256;SDS011;25977;45.462;9.210;2022-11-13T05:18:24;6.53;;;5.72;;
40256;SDS011;25977;45.462;9.210;2022-11-13T05:21:08;7.20;;;6.15;;
40256;SDS011;25977;45.462;9.210;2022-11-13T05:23:55;7.35;;;5.70;;
40256;SDS011;25977;45.462;9.210;2022-11-13T05:26:38;6.90;;;5.75;;
40256;SDS011;25977;45.462;9.210;2022-11-13T05:29:24;6.72;;;5.88;;
40256;SDS011;25977;45.462;9.210;2022-11-13T05:32:08;6.07;;;5.38;;
40256;SDS011;25977;45.462;9.210;2022-11-13T05:34:52;9.65;;;6.40;;
40256;SDS011;25977;45.462;9.210;2022-11-13T05:37:36;6.57;;;5.88;;
40256;SDS011;25977;45.462;9.210;2022-11-13T05:40:20;8.93;;;5.20;;
40256;SDS011;25977;45.462;9.210;2022-11-13T05:43:04;7.53;;;6.13;;
40256;SDS011;25977;45.462;9.210;2022-11-13T05:45:50;7.78;;;5.93;;
40256;SDS011;25977;45.462;9.210;2022-11-13T05:48:34;6.55;;;5.97;;
40256;SDS011;25977;45.462;9.210;2022-11-13T05:51:21;9.23;;;5.68;;
40256;SDS011;25977;45.462;9.210;2022-11-13T05:54:13;8.73;;;6.68;;
40256;SDS011;25977;45.462;9.210;2022-11-13T05:56:58;6.15;;;5.18;;
40256;SDS011;25977;45.462;9.210;2022-11-13T05:59:43;6.72;;;5.13;;
40256;SDS011;25977;45.462;9.210;2022-11-13T06:02:27;8.82;;;5.63;;
40256;SDS011;25977;45.462;9.210;2022-11-13T06:05:11;6.25;;;5.22;;
40256;SDS011;25977;45.462;9.210;2022-11-13T06:07:55;7.60;;;5.32;;
40256;SDS011;25977;45.462;9.210;2022-11-13T06:10:39;6.95;;;5.38;;
40256;SDS011;25977;45.462;9.210;2022-11-13T06:13:23;5.88;;;4.57;;
40256;SDS011;25977;45.462;9.210;2022-11-13T06:16:08;9.23;;;6.22;;
40256;SDS011;25977;45.462;9.210;2022-11-13T06:18:55;7.57;;;4.63;;
40256;SDS011;25977;45.462;9.210;2022-11-13T06:21:41;5.43;;;4.95;;
40256;SDS011;25977;45.462;9.210;2022-11-13T06:24:25;6.78;;;5.13;;
40256;SDS011;25977;45.462;9.210;2022-11-13T06:27:09;5.60;;;4.82;;
40256;SDS011;25977;45.462;9.210;2022-11-13T06:29:53;5.45;;;4.53;;
40256;SDS011;25977;45.462;9.210;2022-11-13T06:32:37;5.22;;;4.68;;
40256;SDS011;25977;45.462;9.210;2022-11-13T06:35:24;6.53;;;5.82;;
40256;SDS011;25977;45.462;9.210;2022-11-13T06:38:09;10.95;;;5.25;;
40256;SDS011;25977;45.462;9.210;2022-11-13T06:40:52;8.70;;;6.05;;
40256;SDS011;25977;45.462;9.210;2022-11-13T06:43:37;7.70;;;5.60;;
40256;SDS011;25977;45.462;9.210;2022-11-13T06:46:22;9.73;;;5.55;;
40256;SDS011;25977;45.462;9.210;2022-11-13T06:49:07;6.75;;;5.25;;
40256;SDS011;25977;45.462;9.210;2022-11-13T06:51:51;7.53;;;5.10;;
40256;SDS011;25977;45.462;9.210;2022-11-13T06:54:35;9.45;;;5.45;;
40256;SDS011;25977;45.462;9.210;2022-11-13T06:57:20;7.47;;;4.97;;
40256;SDS011;25977;45.462;9.210;2022-11-13T07:00:04;8.68;;;5.05;;
40256;SDS011;25977;45.462;9.210;2022-11-13T07:02:49;6.57;;;5.20;;
40256;SDS011;25977;45.462;9.210;2022-11-13T07:05:37;6.10;;;4.45;;
40256;SDS011;25977;45.462;9.210;2022-11-13T07:08:21;6.53;;;4.75;;
40256;SDS011;25977;45.462;9.210;2022-11-13T07:11:05;5.70;;;5.20;;
40256;SDS011;25977;45.462;9.210;2022-11-13T07:13:50;5.28;;;4.80;;
40256;SDS011;25977;45.462;9.210;2022-11-13T07:16:35;6.30;;;5.28;;
40256;SDS011;25977;45.462;9.210;2022-11-13T07:19:19;6.38;;;4.97;;
40256;SDS011;25977;45.462;9.210;2022-11-13T07:22:03;5.88;;;4.90;;
40256;SDS011;25977;45.462;9.210;2022-11-13T07:24:47;6.60;;;5.28;;
40256;SDS011;25977;45.462;9.210;2022-11-13T07:27:31;6.55;;;5.95;;
40256;SDS011;25977;45.462;9.210;2022-11-13T07:30:15;8.90;;;5.32;;
40256;SDS011;25977;45.462;9.210;2022-11-13T07:33:03;9.45;;;5.35;;
40256;SDS011;25977;45.462;9.210;2022-11-13T07:35:47;9.00;;;4.65;;
40256;SDS011;25977;45.462;9.210;2022-11-13T07:38:31;6.82;;;5.43;;
40256;SDS011;25977;45.462;9.210;2022-11-13T07:41:15;8.77;;;6.05;;
40256;SDS011;25977;45.462;9.210;2022-11-13T07:44:01;10.13;;;5.45;;
40256;SDS011;25977;45.462;9.210;2022-11-13T07:46:45;6.75;;;4.75;;
40256;SDS011;25977;45.462;9.210;2022-11-13T07:49:29;6.53;;;5.85;;
40256;SDS011;25977;45.462;9.210;2022-11-13T07:52:13;10.02;;;5.93;;
40256;SDS011;25977;45.462;9.210;2022-11-13T07:54:57;7.78;;;5.50;;
40256;SDS011;25977;45.462;9.210;2022-11-13T07:57:41;6.60;;;5.93;;
40256;SDS011;25977;45.462;9.210;2022-11-13T08:00:26;7.18;;;5.35;;
40256;SDS011;25977;45.462;9.210;2022-11-13T08:03:12;6.85;;;6.13;;
40256;SDS011;25977;45.462;9.210;2022-11-13T08:06:02;4.95;;;4.20;;
40256;SDS011;25977;45.462;9.210;2022-11-13T08:08:48;9.30;;;5.28;;
40256;SDS011;25977;45.462;9.210;2022-11-13T08:11:33;6.72;;;5.00;;
40256;SDS011;25977;45.462;9.210;2022-11-13T08:14:17;7.07;;;5.85;;
40256;SDS011;25977;45.462;9.210;2022-11-13T08:17:02;7.90;;;5.50;;
40256;SDS011;25977;45.462;9.210;2022-11-13T08:19:46;7.63;;;5.07;;
40256;SDS011;25977;45.462;9.210;2022-11-13T08:22:30;8.70;;;5.00;;
40256;SDS011;25977;45.462;9.210;2022-11-13T08:25:15;5.03;;;4.63;;
40256;SDS011;25977;45.462;9.210;2022-11-13T08:27:59;6.78;;;4.78;;
40256;SDS011;25977;45.462;9.210;2022-11-13T08:30:43;6.72;;;4.63;;
40256;SDS011;25977;45.462;9.210;2022-11-13T08:33:28;6.05;;;4.70;;
40256;SDS011;25977;45.462;9.210;2022-11-13T08:36:13;8.25;;;5.18;;
40256;SDS011;25977;45.462;9.210;2022-11-13T08:38:57;6.47;;;4.78;;
40256;SDS011;25977;45.462;9.210;2022-11-13T08:41:41;5.63;;;4.60;;
40256;SDS011;25977;45.462;9.210;2022-11-13T08:44:25;6.65;;;5.75;;
40256;SDS011;25977;45.462;9.210;2022-11-13T08:47:09;5.00;;;4.47;;
40256;SDS011;25977;45.462;9.210;2022-11-13T08:49:54;5.70;;;4.30;;
40256;SDS011;25977;45.462;9.210;2022-11-13T08:52:39;6.07;;;4.13;;
40256;SDS011;25977;45.462;9.210;2022-11-13T08:55:23;9.00;;;4.97;;
40256;SDS011;25977;45.462;9.210;2022-11-13T08:58:08;5.68;;;4.60;;
40256;SDS011;25977;45.462;9.210;2022-11-13T09:00:52;4.75;;;4.10;;
40256;SDS011;25977;45.462;9.210;2022-11-13T09:03:42;4.50;;;4.10;;
40256;SDS011;25977;45.462;9.210;2022-11-13T09:06:25;4.63;;;4.10;;
40256;SDS011;25977;45.462;9.210;2022-11-13T09:09:10;10.48;;;4.45;;
40256;SDS011;25977;45.462;9.210;2022-11-13T09:11:54;6.50;;;5.05;;
40256;SDS011;25977;45.462;9.210;2022-11-13T09:14:39;5.47;;;3.88;;
40256;SDS011;25977;45.462;9.210;2022-11-13T09:17:23;6.72;;;3.97;;
40256;SDS011;25977;45.462;9.210;2022-11-13T09:20:08;4.82;;;3.75;;
40256;SDS011;25977;45.462;9.210;2022-11-13T09:22:56;6.68;;;4.60;;
40256;SDS011;25977;45.462;9.210;2022-11-13T09:25:41;5.32;;;4.05;;
40256;SDS011;25977;45.462;9.210;2022-11-13T09:28:25;4.15;;;3.70;;
40256;SDS011;25977;45.462;9.210;2022-11-13T09:31:09;4.43;;;3.42;;
40256;SDS011;25977;45.462;9.210;2022-11-13T09:33:53;4.45;;;3.83;;
40256;SDS011;25977;45.462;9.210;2022-11-13T09:36:37;3.88;;;3.40;;
40256;SDS011;25977;45.462;9.210;2022-11-13T09:39:21;5.80;;;4.18;;
40256;SDS011;25977;45.462;9.210;2022-11-13T09:42:11;5.43;;;3.97;;
40256;SDS011;25977;45.462;9.210;2022-11-13T09:45:03;6.00;;;3.60;;
40256;SDS011;25977;45.462;9.210;2022-11-13T09:47:50;4.72;;;4.32;;
40256;SDS011;25977;45.462;9.210;2022-11-13T09:50:36;6.07;;;4.07;;
40256;SDS011;25977;45.462;9.210;2022-11-13T09:53:21;11.00;;;4.68;;
40256;SDS011;25977;45.462;9.210;2022-11-13T10:02:31;3.70;;;3.40;;
40256;SDS011;25977;45.462;9.210;2022-11-13T10:11:38;10.82;;;4.50;;
40256;SDS011;25977;45.462;9.210;2022-11-13T10:17:37;3.85;;;3.47;;
40256;SDS011;25977;45.462;9.210;2022-11-13T10:23:36;3.42;;;3.13;;
40256;SDS011;25977;45.462;9.210;2022-11-13T10:26:22;4.05;;;3.15;;
40256;SDS011;25977;45.462;9.210;2022-11-13T10:29:13;6.18;;;2.90;;
40256;SDS011;25977;45.462;9.210;2022-11-13T10:31:58;3.17;;;2.92;;
40256;SDS011;25977;45.462;9.210;2022-11-13T10:37:54;4.80;;;3.03;;
40256;SDS011;25977;45.462;9.210;2022-11-13T10:40:48;3.45;;;3.15;;
40256;SDS011;25977;45.462;9.210;2022-11-13T10:43:33;4.13;;;3.50;;
40256;SDS011;25977;45.462;9.210;2022-11-13T10:46:19;3.78;;;3.30;;
40256;SDS011;25977;45.462;9.210;2022-11-13T10:49:19;6.68;;;3.83;;
40256;SDS011;25977;45.462;9.210;2022-11-13T10:52:19;2.88;;;2.58;;
40256;SDS011;25977;45.462;9.210;2022-11-13T10:57:59;3.20;;;2.85;;
40256;SDS011;25977;45.462;9.210;2022-11-13T11:00:46;2.65;;;2.45;;
40256;SDS011;25977;45.462;9.210;2022-11-13T11:03:32;5.40;;;3.28;;
40256;SDS011;25977;45.462;9.210;2022-11-13T11:06:16;3.22;;;2.92;;
40256;SDS011;25977;45.462;9.210;2022-11-13T11:12:13;5.05;;;3.60;;
40256;SDS011;25977;45.462;9.210;2022-11-13T11:15:35;3.78;;;3.15;;
40256;SDS011;25977;45.462;9.210;2022-11-13T11:21:19;3.17;;;2.88;;
40256;SDS011;25977;45.462;9.210;2022-11-13T11:24:42;4.18;;;2.72;;
40256;SDS011;25977;45.462;9.210;2022-11-13T11:27:29;3.92;;;3.60;;
40256;SDS011;25977;45.462;9.210;2022-11-13T11:30:22;6.40;;;3.45;;
40256;SDS011;25977;45.462;9.210;2022-11-13T11:36:32;4.15;;;3.70;;
40256;SDS011;25977;45.462;9.210;2022-11-13T11:42:33;3.58;;;3.28;;
40256;SDS011;25977;45.462;9.210;2022-11-13T11:45:32;4.25;;;3.85;;
40256;SDS011;25977;45.462;9.210;2022-11-13T11:48:25;3.67;;;3.30;;
40256;SDS011;25977;45.462;9.210;2022-11-13T11:51:29;5.07;;;3.30;;
40256;SDS011;25977;45.462;9.210;2022-11-13T11:54:27;3.65;;;3.35;;
40256;SDS011;25977;45.462;9.210;2022-11-13T12:00:30;3.90;;;3.58;;
40256;SDS011;25977;45.462;9.210;2022-11-13T12:12:19;4.57;;;3.47;;
40256;SDS011;25977;45.462;9.210;2022-11-13T12:18:50;3.72;;;3.42;;
40256;SDS011;25977;45.462;9.210;2022-11-13T12:24:35;4.30;;;3.90;;
40256;SDS011;25977;45.462;9.210;2022-11-13T12:28:16;5.13;;;3.28;;
40256;SDS011;25977;45.462;9.210;2022-11-13T12:34:24;3.45;;;2.97;;
40256;SDS011;25977;45.462;9.210;2022-11-13T12:37:33;8.15;;;3.30;;
40256;SDS011;25977;45.462;9.210;2022-11-13T12:46:39;3.97;;;3.50;;
40256;SDS011;25977;45.462;9.210;2022-11-13T12:52:22;4.93;;;3.40;;
40256;SDS011;25977;45.462;9.210;2022-11-13T12:55:23;4.47;;;4.07;;
40256;SDS011;25977;45.462;9.210;2022-11-13T12:58:10;4.75;;;4.35;;
40256;SDS011;25977;45.462;9.210;2022-11-13T13:01:11;4.20;;;3.75;;
40256;SDS011;25977;45.462;9.210;2022-11-13T13:07:10;6.72;;;4.30;;
40256;SDS011;25977;45.462;9.210;2022-11-13T13:13:32;3.15;;;2.83;;
40256;SDS011;25977;45.462;9.210;2022-11-13T13:16:25;3.80;;;3.47;;
40256;SDS011;25977;45.462;9.210;2022-11-13T13:19:29;5.50;;;4.35;;
40256;SDS011;25977;45.462;9.210;2022-11-13T13:22:29;5.57;;;3.83;;
40256;SDS011;25977;45.462;9.210;2022-11-13T13:47:02;5.47;;;4.95;;
40256;SDS011;25977;45.462;9.210;2022-11-13T13:49:54;4.25;;;3.85;;
40256;SDS011;25977;45.462;9.210;2022-11-13T13:52:40;7.90;;;4.40;;
40256;SDS011;25977;45.462;9.210;2022-11-13T13:55:27;5.43;;;4.93;;
40256;SDS011;25977;45.462;9.210;2022-11-13T13:58:16;5.97;;;4.32;;
40256;SDS011;25977;45.462;9.210;2022-11-13T14:01:10;8.00;;;4.68;;
40256;SDS011;25977;45.462;9.210;2022-11-13T14:04:13;14.48;;;4.35;;
40256;SDS011;25977;45.462;9.210;2022-11-13T14:07:01;4.88;;;4.47;;
40256;SDS011;25977;45.462;9.210;2022-11-13T14:09:46;4.88;;;4.47;;
40256;SDS011;25977;45.462;9.210;2022-11-13T14:12:30;5.88;;;4.88;;
40256;SDS011;25977;45.462;9.210;2022-11-13T14:23:50;4.70;;;4.15;;
40256;SDS011;25977;45.462;9.210;2022-11-13T14:26:37;4.95;;;4.47;;
40256;SDS011;25977;45.462;9.210;2022-11-13T14:29:22;6.45;;;4.15;;
40256;SDS011;25977;45.462;9.210;2022-11-13T14:32:17;5.05;;;4.55;;
40256;SDS011;25977;45.462;9.210;2022-11-13T14:35:04;6.63;;;5.07;;
40256;SDS011;25977;45.462;9.210;2022-11-13T14:37:53;4.90;;;3.92;;
40256;SDS011;25977;45.462;9.210;2022-11-13T14:40:38;6.18;;;4.57;;
40256;SDS011;25977;45.462;9.210;2022-11-13T14:43:23;5.93;;;4.47;;
40256;SDS011;25977;45.462;9.210;2022-11-13T14:46:22;5.28;;;4.45;;
40256;SDS011;25977;45.462;9.210;2022-11-13T14:49:35;5.07;;;4.03;;
40256;SDS011;25977;45.462;9.210;2022-11-13T14:52:25;6.07;;;5.10;;
40256;SDS011;25977;45.462;9.210;2022-11-13T14:55:24;5.78;;;4.65;;
40256;SDS011;25977;45.462;9.210;2022-11-13T14:58:13;4.72;;;4.20;;
40256;SDS011;25977;45.462;9.210;2022-11-13T15:00:58;5.88;;;5.05;;
40256;SDS011;25977;45.462;9.210;2022-11-13T15:03:57;5.13;;;4.63;;
40256;SDS011;25977;45.462;9.210;2022-11-13T15:06:41;5.28;;;4.78;;
40256;SDS011;25977;45.462;9.210;2022-11-13T15:09:26;6.47;;;5.10;;
40256;SDS011;25977;45.462;9.210;2022-11-13T15:12:12;8.07;;;4.22;;
40256;SDS011;25977;45.462;9.210;2022-11-13T15:14:56;6.20;;;4.93;;
40256;SDS011;25977;45.462;9.210;2022-11-13T15:17:41;5.60;;;5.10;;
40256;SDS011;25977;45.462;9.210;2022-11-13T15:20:27;5.55;;;5.00;;
40256;SDS011;25977;45.462;9.210;2022-11-13T15:23:13;5.38;;;4.43;;
40256;SDS011;25977;45.462;9.210;2022-11-13T15:25:58;7.43;;;5.00;;
40256;SDS011;25977;45.462;9.210;2022-11-13T15:28:42;9.38;;;5.93;;
40256;SDS011;25977;45.462;9.210;2022-11-13T15:31:33;8.68;;;4.85;;
40256;SDS011;25977;45.462;9.210;2022-11-13T15:34:22;7.28;;;5.05;;
40256;SDS011;25977;45.462;9.210;2022-11-13T15:37:11;5.47;;;4.63;;
40256;SDS011;25977;45.462;9.210;2022-11-13T15:39:59;9.02;;;5.30;;
40256;SDS011;25977;45.462;9.210;2022-11-13T15:42:43;6.60;;;5.13;;
40256;SDS011;25977;45.462;9.210;2022-11-13T15:45:27;8.30;;;5.88;;
40256;SDS011;25977;45.462;9.210;2022-11-13T15:48:11;6.72;;;5.45;;
40256;SDS011;25977;45.462;9.210;2022-11-13T15:50:56;6.53;;;5.40;;
40256;SDS011;25977;45.462;9.210;2022-11-13T15:53:40;8.75;;;4.85;;
40256;SDS011;25977;45.462;9.210;2022-11-13T15:56:25;10.77;;;5.65;;
40256;SDS011;25977;45.462;9.210;2022-11-13T15:59:11;10.18;;;5.60;;
40256;SDS011;25977;45.462;9.210;2022-11-13T16:01:55;6.78;;;6.07;;
40256;SDS011;25977;45.462;9.210;2022-11-13T16:04:40;8.65;;;5.90;;
40256;SDS011;25977;45.462;9.210;2022-11-13T16:07:26;8.23;;;5.82;;
40256;SDS011;25977;45.462;9.210;2022-11-13T16:10:14;8.07;;;5.68;;
40256;SDS011;25977;45.462;9.210;2022-11-13T16:12:58;8.15;;;5.50;;
40256;SDS011;25977;45.462;9.210;2022-11-13T16:15:42;6.75;;;6.15;;
40256;SDS011;25977;45.462;9.210;2022-11-13T16:18:27;8.65;;;6.05;;
40256;SDS011;25977;45.462;9.210;2022-11-13T16:23:59;11.88;;;7.00;;
40256;SDS011;25977;45.462;9.210;2022-11-13T16:26:46;11.43;;;6.88;;
40256;SDS011;25977;45.462;9.210;2022-11-13T16:29:34;9.48;;;6.47;;
40256;SDS011;25977;45.462;9.210;2022-11-13T16:32:18;6.80;;;6.03;;
40256;SDS011;25977;45.462;9.210;2022-11-13T16:35:03;7.35;;;6.60;;
40256;SDS011;25977;45.462;9.210;2022-11-13T16:37:48;9.93;;;6.72;;
40256;SDS011;25977;45.462;9.210;2022-11-13T16:40:33;7.35;;;5.70;;
40256;SDS011;25977;45.462;9.210;2022-11-13T16:43:18;8.57;;;6.88;;
40256;SDS011;25977;45.462;9.210;2022-11-13T16:46:02;7.65;;;6.30;;
40256;SDS011;25977;45.462;9.210;2022-11-13T16:49:00;6.47;;;5.60;;
40256;SDS011;25977;45.462;9.210;2022-11-13T16:51:45;10.43;;;6.43;;
40256;SDS011;25977;45.462;9.210;2022-11-13T16:54:29;8.15;;;7.07;;
40256;SDS011;25977;45.462;9.210;2022-11-13T16:57:13;11.75;;;6.72;;
40256;SDS011;25977;45.462;9.210;2022-11-13T16:59:57;8.98;;;6.78;;
40256;SDS011;25977;45.462;9.210;2022-11-13T17:02:42;7.97;;;6.13;;
40256;SDS011;25977;45.462;9.210;2022-11-13T17:05:26;9.98;;;6.50;;
40256;SDS011;25977;45.462;9.210;2022-11-13T17:08:11;9.43;;;6.13;;
40256;SDS011;25977;45.462;9.210;2022-11-13T17:10:55;9.82;;;7.82;;
40256;SDS011;25977;45.462;9.210;2022-11-13T17:13:41;11.77;;;6.25;;
40256;SDS011;25977;45.462;9.210;2022-11-13T17:16:26;8.57;;;7.15;;
40256;SDS011;25977;45.462;9.210;2022-11-13T17:19:11;8.23;;;6.93;;
40256;SDS011;25977;45.462;9.210;2022-11-13T17:21:57;10.77;;;7.25;;
40256;SDS011;25977;45.462;9.210;2022-11-13T17:24:41;11.98;;;8.55;;
40256;SDS011;25977;45.462;9.210;2022-11-13T17:27:26;10.75;;;7.15;;
40256;SDS011;25977;45.462;9.210;2022-11-13T17:30:11;26.08;;;7.57;;
40256;SDS011;25977;45.462;9.210;2022-11-13T17:32:55;11.07;;;7.47;;
40256;SDS011;25977;45.462;9.210;2022-11-13T17:35:39;11.02;;;8.05;;
40256;SDS011;25977;45.462;9.210;2022-11-13T17:38:24;15.95;;;9.32;;
40256;SDS011;25977;45.462;9.210;2022-11-13T17:41:09;19.50;;;9.68;;
40256;SDS011;25977;45.462;9.210;2022-11-13T17:43:55;14.90;;;8.68;;
40256;SDS011;25977;45.462;9.210;2022-11-13T17:46:40;14.27;;;9.23;;
40256;SDS011;25977;45.462;9.210;2022-11-13T17:49:24;13.27;;;8.38;;
40256;SDS011;25977;45.462;9.210;2022-11-13T17:52:08;10.73;;;7.75;;
40256;SDS011;25977;45.462;9.210;2022-11-13T17:54:52;10.23;;;7.82;;
40256;SDS011;25977;45.462;9.210;2022-11-13T17:57:36;18.08;;;7.90;;
40256;SDS011;25977;45.462;9.210;2022-11-13T18:00:20;10.02;;;8.25;;
40256;SDS011;25977;45.462;9.210;2022-11-13T18:03:05;12.90;;;7.30;;
40256;SDS011;25977;45.462;9.210;2022-11-13T18:05:49;10.50;;;8.57;;
40256;SDS011;25977;45.462;9.210;2022-11-13T18:08:33;19.88;;;9.02;;
40256;SDS011;25977;45.462;9.210;2022-11-13T18:11:18;14.13;;;7.63;;
40256;SDS011;25977;45.462;9.210;2022-11-13T18:14:04;9.05;;;6.88;;
40256;SDS011;25977;45.462;9.210;2022-11-13T18:16:48;9.90;;;7.28;;
40256;SDS011;25977;45.462;9.210;2022-11-13T18:19:32;14.68;;;9.07;;
40256;SDS011;25977;45.462;9.210;2022-11-13T18:22:16;11.50;;;8.77;;
40256;SDS011;25977;45.462;9.210;2022-11-13T18:25:00;12.35;;;8.25;;
40256;SDS011;25977;45.462;9.210;2022-11-13T18:27:46;14.98;;;8.80;;
40256;SDS011;25977;45.462;9.210;2022-11-13T18:30:30;12.80;;;7.97;;
40256;SDS011;25977;45.462;9.210;2022-11-13T18:33:14;12.27;;;8.88;;